createdAt,value
2019-03-21T00:00:36.412Z,11.90
2019-03-21T00:02:55.933Z,11.93
2019-03-21T00:05:17.443Z,13.53
2019-03-21T00:07:37.502Z,13.33
2019-03-21T00:10:29.211Z,15.10
2019-03-21T00:12:48.821Z,16.30
2019-03-21T00:15:23.607Z,18.33
2019-03-21T00:17:46.920Z,16.63
2019-03-21T00:20:16.256Z,14.77
2019-03-21T00:22:36.301Z,19.03
2019-03-21T00:24:56.021Z,18.87
2019-03-21T00:27:15.718Z,16.30
2019-03-21T00:29:35.485Z,17.87
2019-03-21T00:31:55.396Z,13.27
2019-03-21T00:34:15.303Z,17.23
2019-03-21T00:36:35.219Z,17.83
2019-03-21T00:38:55.245Z,17.00
2019-03-21T00:41:15.138Z,19.67
2019-03-21T00:43:35.015Z,21.43
2019-03-21T00:45:54.950Z,19.83
2019-03-21T00:48:18.737Z,22.03
2019-03-21T00:50:39.078Z,20.43
2019-03-21T00:52:59.014Z,21.30
2019-03-21T00:55:20.068Z,22.83
2019-03-21T00:57:39.941Z,26.33
2019-03-21T00:59:59.847Z,27.13
2019-03-21T01:02:20.387Z,22.10
2019-03-21T01:04:40.109Z,18.63
2019-03-21T01:06:59.875Z,18.97
2019-03-21T01:09:19.635Z,18.73
2019-03-21T01:11:39.318Z,21.77
2019-03-21T01:13:59.096Z,19.13
2019-03-21T01:16:19.715Z,23.50
2019-03-21T01:18:46.210Z,21.83
2019-03-21T01:21:05.885Z,21.60
2019-03-21T01:23:25.759Z,21.00
2019-03-21T01:25:59.629Z,22.13
2019-03-21T01:28:19.716Z,18.23
2019-03-21T01:30:39.591Z,21.33
2019-03-21T01:32:59.448Z,20.27
2019-03-21T01:35:19.077Z,22.80
2019-03-21T01:37:38.824Z,17.50
2019-03-21T01:39:58.647Z,25.43
2019-03-21T01:42:18.342Z,25.40
2019-03-21T01:44:41.282Z,23.40
2019-03-21T01:46:59.987Z,16.97
2019-03-21T01:49:19.900Z,18.83
2019-03-21T01:51:39.732Z,21.00
2019-03-21T01:54:00.124Z,20.43
2019-03-21T01:56:19.924Z,19.40
2019-03-21T01:58:39.631Z,22.17
2019-03-21T02:00:59.537Z,24.20
2019-03-21T02:03:19.295Z,21.50
2019-03-21T02:05:39.420Z,22.30
2019-03-21T02:07:59.226Z,25.33
2019-03-21T02:10:19.226Z,22.17
2019-03-21T02:12:39.100Z,23.40
2019-03-21T02:14:59.062Z,26.80
2019-03-21T02:17:18.884Z,20.30
2019-03-21T02:19:38.647Z,29.60
2019-03-21T02:21:58.309Z,23.90
2019-03-21T02:24:18.117Z,21.97
2019-03-21T02:26:37.909Z,20.57
2019-03-21T02:28:57.707Z,22.87
2019-03-21T02:31:17.423Z,25.40
2019-03-21T02:33:43.615Z,27.63
2019-03-21T02:36:10.037Z,24.13
2019-03-21T02:38:30.219Z,20.70
2019-03-21T02:40:54.724Z,19.90
2019-03-21T02:43:14.493Z,22.73
2019-03-21T02:45:34.356Z,20.17
2019-03-21T02:47:54.057Z,19.00
2019-03-21T02:50:30.280Z,20.93
2019-03-21T02:52:50.325Z,22.70
2019-03-21T02:55:10.490Z,21.20
2019-03-21T02:57:30.395Z,21.87
2019-03-21T02:59:50.293Z,22.97
2019-03-21T03:02:10.090Z,25.50
2019-03-21T03:04:29.984Z,24.43
2019-03-21T03:06:49.981Z,26.97
2019-03-21T03:09:09.973Z,29.13
2019-03-21T03:11:30.022Z,26.53
2019-03-21T03:13:50.422Z,28.73
2019-03-21T03:16:10.555Z,27.10
2019-03-21T03:18:30.403Z,34.00
2019-03-21T03:20:50.132Z,30.43
2019-03-21T03:23:09.839Z,29.63
2019-03-21T03:25:29.644Z,28.17
2019-03-21T03:27:58.460Z,25.77
2019-03-21T03:30:23.322Z,23.70
2019-03-21T03:32:43.820Z,23.73
2019-03-21T03:35:08.549Z,22.80
2019-03-21T03:37:28.880Z,25.63
2019-03-21T03:39:49.095Z,24.37
2019-03-21T03:42:09.077Z,24.00
2019-03-21T03:44:29.307Z,28.50
2019-03-21T03:46:49.087Z,26.43
2019-03-21T03:49:08.788Z,22.30
2019-03-21T03:51:28.814Z,23.90
2019-03-21T03:53:48.700Z,27.87
2019-03-21T03:56:08.604Z,41.47
2019-03-21T03:58:33.033Z,26.40
2019-03-21T04:00:53.084Z,23.60
2019-03-21T04:03:12.849Z,25.70
2019-03-21T04:05:32.872Z,24.13
2019-03-21T04:07:52.562Z,31.70
2019-03-21T04:10:17.930Z,24.90
2019-03-21T04:12:38.441Z,26.20
2019-03-21T04:14:58.309Z,25.57
2019-03-21T04:17:18.383Z,22.97
2019-03-21T04:19:38.133Z,27.03
2019-03-21T04:21:57.932Z,23.90
2019-03-21T04:24:18.782Z,24.37
2019-03-21T04:26:38.667Z,24.07
2019-03-21T04:28:58.516Z,26.80
2019-03-21T04:31:18.482Z,29.17
2019-03-21T04:33:40.241Z,22.13
2019-03-21T04:36:00.431Z,28.00
2019-03-21T04:38:21.047Z,31.43
2019-03-21T04:40:40.952Z,25.07
2019-03-21T04:43:01.079Z,28.03
2019-03-21T04:45:23.888Z,27.40
2019-03-21T04:47:43.832Z,26.70
2019-03-21T04:50:09.189Z,22.90
2019-03-21T04:52:29.278Z,28.67
2019-03-21T04:54:49.040Z,27.00
2019-03-21T04:57:08.847Z,30.10
2019-03-21T04:59:28.759Z,25.73
2019-03-21T05:01:48.433Z,26.57
2019-03-21T05:04:08.207Z,26.43
2019-03-21T05:06:28.225Z,29.17
2019-03-21T05:08:48.142Z,28.80
2019-03-21T05:11:08.122Z,29.37
2019-03-21T05:13:28.154Z,31.50
2019-03-21T05:15:51.347Z,29.30
2019-03-21T05:18:45.939Z,30.97
2019-03-21T05:21:11.497Z,25.30
2019-03-21T05:23:31.692Z,29.40
2019-03-21T05:25:51.593Z,33.20
2019-03-21T05:28:11.348Z,34.07
2019-03-21T05:30:46.151Z,36.33
2019-03-21T05:33:05.922Z,29.33
2019-03-21T05:35:25.663Z,28.80
2019-03-21T05:37:45.457Z,31.37
2019-03-21T05:40:35.576Z,32.53
2019-03-21T05:43:06.979Z,34.37
2019-03-21T05:45:27.067Z,33.10
2019-03-21T05:47:46.911Z,35.20
2019-03-21T05:50:14.874Z,32.10
2019-03-21T05:52:33.921Z,37.27
2019-03-21T05:54:54.057Z,38.37
2019-03-21T05:57:14.142Z,35.90
2019-03-21T05:59:34.019Z,36.43
2019-03-21T06:01:53.971Z,35.57
2019-03-21T06:04:14.006Z,34.77
2019-03-21T06:06:55.069Z,43.10
2019-03-21T06:09:19.882Z,36.67
2019-03-21T06:11:45.068Z,39.30
2019-03-21T06:14:05.331Z,41.37
2019-03-21T06:16:25.070Z,40.07
2019-03-21T06:19:03.058Z,37.70
2019-03-21T06:21:40.153Z,39.97
2019-03-21T06:24:26.285Z,41.97
2019-03-21T06:27:14.890Z,47.90
2019-03-21T06:29:33.738Z,41.47
2019-03-21T06:31:53.652Z,43.00
2019-03-21T06:34:13.451Z,48.80
2019-03-21T06:36:33.371Z,46.73
2019-03-21T06:38:53.176Z,42.03
2019-03-21T06:41:13.196Z,48.10
2019-03-21T06:43:33.058Z,45.87
2019-03-21T06:45:52.951Z,48.53
2019-03-21T06:48:12.918Z,49.33
2019-03-21T06:50:32.713Z,50.83
2019-03-21T06:52:52.587Z,47.60
2019-03-21T06:55:12.330Z,50.43
2019-03-21T06:57:32.176Z,46.60
2019-03-21T06:59:52.036Z,48.23
2019-03-21T07:02:11.697Z,41.93
2019-03-21T07:04:31.803Z,49.90
2019-03-21T07:06:51.478Z,43.90
2019-03-21T07:09:11.175Z,50.20
2019-03-21T07:11:30.889Z,46.33
2019-03-21T07:13:50.611Z,55.33
2019-03-21T07:16:10.433Z,53.70
2019-03-21T07:18:30.319Z,46.10
2019-03-21T07:20:50.127Z,52.63
2019-03-21T07:23:10.023Z,52.20
2019-03-21T07:25:29.866Z,52.97
2019-03-21T07:27:49.804Z,49.27
2019-03-21T07:30:13.364Z,48.50
2019-03-21T07:32:33.793Z,51.17
2019-03-21T07:34:53.625Z,47.00
2019-03-21T07:37:13.510Z,47.20
2019-03-21T07:39:33.383Z,43.30
2019-03-21T07:41:53.291Z,45.60
2019-03-21T07:44:13.309Z,49.27
2019-03-21T07:46:33.233Z,48.80
2019-03-21T07:48:53.257Z,50.57
2019-03-21T07:51:13.115Z,46.37
2019-03-21T07:53:33.967Z,49.30
2019-03-21T07:55:53.813Z,45.23
2019-03-21T07:58:13.460Z,39.53
2019-03-21T08:00:33.903Z,45.50
2019-03-21T08:02:53.667Z,35.97
2019-03-21T08:05:14.570Z,41.50
2019-03-21T08:07:34.320Z,40.07
2019-03-21T08:09:53.999Z,44.57
2019-03-21T08:12:13.671Z,40.47
2019-03-21T08:14:33.586Z,36.30
2019-03-21T08:16:53.357Z,40.47
2019-03-21T08:19:13.099Z,51.13
2019-03-21T08:21:32.958Z,37.87
2019-03-21T08:23:52.755Z,37.67
2019-03-21T08:26:12.674Z,38.23
2019-03-21T08:28:32.522Z,37.80
2019-03-21T08:31:10.237Z,38.70
2019-03-21T08:33:30.076Z,34.57
2019-03-21T08:35:49.953Z,37.53
2019-03-21T08:38:09.704Z,38.70
2019-03-21T08:40:29.659Z,37.57
2019-03-21T08:42:49.539Z,35.00
2019-03-21T08:45:10.149Z,38.93
2019-03-21T08:47:29.987Z,36.77
2019-03-21T08:49:49.980Z,37.60
2019-03-21T08:52:09.860Z,40.80
2019-03-21T08:54:29.766Z,35.97
2019-03-21T08:56:49.670Z,35.83
2019-03-21T08:59:09.309Z,30.73
2019-03-21T09:01:29.092Z,37.10
2019-03-21T09:03:48.924Z,33.53
2019-03-21T09:06:08.656Z,34.60
2019-03-21T09:08:28.617Z,33.03
2019-03-21T09:10:48.886Z,37.53
2019-03-21T09:13:08.609Z,30.20
2019-03-21T09:15:28.486Z,35.97
2019-03-21T09:17:48.366Z,35.47
2019-03-21T09:20:09.159Z,33.80
2019-03-21T09:22:28.955Z,31.23
2019-03-21T09:24:48.730Z,27.60
2019-03-21T09:27:08.564Z,35.90
2019-03-21T09:29:28.247Z,31.87
2019-03-21T09:31:48.137Z,33.60
2019-03-21T09:34:07.996Z,32.73
2019-03-21T09:36:27.878Z,31.93
2019-03-21T09:38:47.831Z,31.37
2019-03-21T09:41:07.758Z,29.60
2019-03-21T09:43:27.867Z,35.27
2019-03-21T09:45:48.097Z,29.03
2019-03-21T09:48:08.444Z,33.00
2019-03-21T09:50:29.114Z,29.40
2019-03-21T09:52:49.215Z,31.13
2019-03-21T09:55:09.081Z,30.20
2019-03-21T09:57:48.681Z,31.03
2019-03-21T10:00:10.167Z,36.57
2019-03-21T10:02:30.160Z,33.77
2019-03-21T10:04:49.966Z,25.57
2019-03-21T10:07:09.726Z,31.17
2019-03-21T10:09:29.580Z,32.37
2019-03-21T10:11:49.411Z,30.07
2019-03-21T10:14:09.208Z,29.67
2019-03-21T10:16:29.026Z,29.30
2019-03-21T10:18:48.868Z,34.10
2019-03-21T10:21:08.764Z,31.47
2019-03-21T10:23:28.672Z,26.20
2019-03-21T10:25:48.669Z,29.00
2019-03-21T10:28:08.815Z,29.87
2019-03-21T10:30:37.931Z,30.73
2019-03-21T10:32:57.639Z,26.17
2019-03-21T10:35:17.439Z,29.10
2019-03-21T10:37:37.219Z,24.87
2019-03-21T10:39:57.075Z,29.07
2019-03-21T10:42:17.063Z,26.87
2019-03-21T10:44:36.700Z,30.53
2019-03-21T10:46:56.527Z,28.00
2019-03-21T10:49:16.782Z,26.10
2019-03-21T10:51:36.530Z,28.87
2019-03-21T10:53:56.921Z,28.20
2019-03-21T10:56:16.880Z,27.47
2019-03-21T10:58:36.849Z,30.47
2019-03-21T11:00:56.818Z,25.50
2019-03-21T11:03:16.667Z,23.80
2019-03-21T11:05:36.965Z,27.17
2019-03-21T11:07:57.054Z,27.60
2019-03-21T11:10:16.710Z,28.93
2019-03-21T11:12:36.328Z,26.83
2019-03-21T11:14:56.086Z,29.80
2019-03-21T11:17:15.853Z,24.20
2019-03-21T11:19:35.611Z,29.23
2019-03-21T11:22:05.788Z,24.83
2019-03-21T11:24:17.291Z,30.00
2019-03-21T11:26:37.094Z,32.20
2019-03-21T11:28:56.807Z,28.13
2019-03-21T11:31:16.528Z,30.60
2019-03-21T11:33:36.326Z,25.70
2019-03-21T11:35:56.134Z,24.13
2019-03-21T11:38:15.930Z,29.97
2019-03-21T11:40:35.850Z,29.50
2019-03-21T11:42:56.510Z,34.57
2019-03-21T11:45:16.477Z,31.27
2019-03-21T11:47:41.596Z,27.17
2019-03-21T11:49:58.136Z,28.10
2019-03-21T11:52:18.732Z,29.20
2019-03-21T11:54:38.820Z,27.20
2019-03-21T11:56:58.633Z,28.50
2019-03-21T11:59:18.518Z,27.57
2019-03-21T12:01:38.464Z,29.20
2019-03-21T12:03:58.418Z,26.60
2019-03-21T12:06:18.331Z,30.00
2019-03-21T12:08:38.229Z,31.57
2019-03-21T12:10:58.211Z,32.67
2019-03-21T12:13:18.066Z,28.80
2019-03-21T12:15:37.824Z,26.20
2019-03-21T12:17:57.450Z,29.70
2019-03-21T12:20:29.946Z,30.47
2019-03-21T12:22:49.939Z,30.23
2019-03-21T12:25:10.077Z,35.47
2019-03-21T12:27:30.221Z,29.20
2019-03-21T12:29:50.007Z,32.80
2019-03-21T12:32:09.929Z,32.47
2019-03-21T12:34:29.695Z,29.10
2019-03-21T12:36:49.418Z,29.27
2019-03-21T12:39:09.269Z,34.57
2019-03-21T12:41:29.192Z,31.07
2019-03-21T12:43:49.123Z,31.30
2019-03-21T12:46:09.074Z,30.83
2019-03-21T12:48:29.015Z,32.20
2019-03-21T12:50:48.922Z,35.77
2019-03-21T12:53:08.774Z,32.63
2019-03-21T12:55:28.486Z,35.37
2019-03-21T12:57:48.158Z,33.73
2019-03-21T13:00:12.247Z,44.23
2019-03-21T13:02:32.654Z,37.00
2019-03-21T13:04:54.898Z,29.23
2019-03-21T13:07:15.515Z,33.07
2019-03-21T13:09:35.805Z,35.73
2019-03-21T13:11:55.926Z,34.23
2019-03-21T13:14:15.913Z,27.93
2019-03-21T13:16:35.796Z,31.90
2019-03-21T13:18:55.545Z,29.90
2019-03-21T13:21:15.420Z,32.73
2019-03-21T13:23:35.088Z,37.47
2019-03-21T13:25:54.819Z,30.53
2019-03-21T13:28:14.504Z,34.93
2019-03-21T13:30:34.486Z,30.57
2019-03-21T13:32:54.509Z,31.87
2019-03-21T13:35:14.335Z,33.37
2019-03-21T13:37:34.530Z,31.17
2019-03-21T13:39:54.212Z,31.50
2019-03-21T13:42:13.961Z,29.93
2019-03-21T13:44:33.748Z,28.77
2019-03-21T13:46:53.576Z,33.77
2019-03-21T13:49:13.372Z,33.93
2019-03-21T13:51:33.132Z,31.70
2019-03-21T13:53:53.175Z,28.53
2019-03-21T13:56:13.286Z,31.60
2019-03-21T13:58:33.239Z,33.80
2019-03-21T14:00:53.211Z,33.17
2019-03-21T14:03:24.365Z,27.60
2019-03-21T14:05:35.169Z,28.90
2019-03-21T14:07:55.090Z,36.13
2019-03-21T14:10:15.666Z,31.23
2019-03-21T14:12:35.576Z,35.33
2019-03-21T14:14:55.440Z,32.13
2019-03-21T14:17:21.901Z,35.23
2019-03-21T14:19:37.277Z,29.63
2019-03-21T14:21:57.137Z,29.90
2019-03-21T14:24:16.944Z,32.30
2019-03-21T14:26:36.695Z,29.63
2019-03-21T14:28:56.391Z,32.23
2019-03-21T14:31:16.095Z,30.00
2019-03-21T14:33:35.910Z,32.63
2019-03-21T14:35:55.669Z,33.93
2019-03-21T14:38:25.918Z,29.67
2019-03-21T14:40:37.278Z,33.03
2019-03-21T14:42:56.996Z,29.80
2019-03-21T14:45:17.109Z,30.20
2019-03-21T14:47:37.024Z,31.63
2019-03-21T14:49:57.026Z,34.33
2019-03-21T14:52:17.081Z,29.80
2019-03-21T14:54:36.772Z,29.90
2019-03-21T14:56:56.611Z,29.07
2019-03-21T14:59:16.200Z,30.37
2019-03-21T15:01:35.994Z,30.60
2019-03-21T15:03:55.952Z,29.03
2019-03-21T15:06:15.953Z,30.10
2019-03-21T15:08:35.975Z,28.73
2019-03-21T15:10:55.997Z,28.60
2019-03-21T15:13:16.075Z,30.00
2019-03-21T15:15:36.493Z,28.80
2019-03-21T15:17:58.687Z,26.67
2019-03-21T15:20:18.561Z,28.47
2019-03-21T15:22:38.357Z,29.50
2019-03-21T15:24:58.295Z,26.20
2019-03-21T15:27:18.041Z,25.27
2019-03-21T15:29:37.775Z,25.50
2019-03-21T15:31:57.472Z,25.67
2019-03-21T15:34:17.246Z,24.13
2019-03-21T15:36:37.048Z,26.90
2019-03-21T15:38:57.257Z,27.80
2019-03-21T15:41:17.097Z,24.20
2019-03-21T15:43:36.872Z,25.70
2019-03-21T15:45:56.584Z,27.00
2019-03-21T15:48:16.293Z,25.10
2019-03-21T15:50:37.987Z,24.63
2019-03-21T15:52:58.298Z,25.03
2019-03-21T15:55:18.254Z,28.60
2019-03-21T15:57:38.023Z,25.77
2019-03-21T15:59:57.970Z,24.47
2019-03-21T16:02:18.140Z,24.90
2019-03-21T16:04:37.757Z,25.57
2019-03-21T16:06:57.728Z,26.83
2019-03-21T16:09:17.722Z,28.53
2019-03-21T16:11:40.932Z,26.10
2019-03-21T16:14:00.643Z,26.20
2019-03-21T16:16:20.528Z,22.90
2019-03-21T16:18:40.364Z,22.30
2019-03-21T16:21:00.409Z,23.80
2019-03-21T16:23:20.211Z,24.73
2019-03-21T16:25:40.265Z,26.93
2019-03-21T16:28:01.051Z,25.03
2019-03-21T16:30:21.256Z,24.17
2019-03-21T16:32:41.034Z,24.80
2019-03-21T16:35:01.039Z,25.73
2019-03-21T16:37:20.926Z,25.33
2019-03-21T16:39:40.697Z,27.43
2019-03-21T16:42:00.319Z,28.60
2019-03-21T16:44:20.355Z,23.80
2019-03-21T16:46:40.126Z,28.67
2019-03-21T16:48:59.923Z,25.50
2019-03-21T16:51:19.863Z,27.43
2019-03-21T16:53:39.678Z,24.80
2019-03-21T16:55:59.416Z,31.33
2019-03-21T16:58:19.118Z,37.57
2019-03-21T17:00:38.932Z,31.90
2019-03-21T17:02:58.671Z,32.93
2019-03-21T17:05:18.487Z,29.97
2019-03-21T17:07:38.200Z,32.37
2019-03-21T17:09:58.211Z,28.60
2019-03-21T17:12:18.616Z,33.43
2019-03-21T17:14:38.459Z,36.23
2019-03-21T17:16:58.625Z,36.20
2019-03-21T17:19:18.605Z,34.00
2019-03-21T17:21:38.518Z,29.00
2019-03-21T17:23:58.440Z,29.10
2019-03-21T17:26:18.849Z,30.43
2019-03-21T17:28:38.598Z,36.83
2019-03-21T17:30:58.352Z,32.70
2019-03-21T17:33:18.084Z,28.27
2019-03-21T17:35:37.917Z,28.17
2019-03-21T17:37:57.555Z,26.70
2019-03-21T17:40:17.821Z,29.37
2019-03-21T17:42:37.623Z,29.83
2019-03-21T17:44:57.381Z,36.00
2019-03-21T17:47:17.016Z,36.77
2019-03-21T17:49:36.826Z,37.23
2019-03-21T17:51:56.633Z,31.10
2019-03-21T17:54:16.340Z,64.17
2019-03-21T17:56:36.072Z,51.10
2019-03-21T17:58:55.903Z,51.60
2019-03-21T18:01:16.053Z,49.67
2019-03-21T18:03:36.423Z,45.07
2019-03-21T18:05:56.735Z,41.10
2019-03-21T18:08:16.685Z,36.70
2019-03-21T18:10:36.730Z,33.07
2019-03-21T18:12:56.749Z,32.90
2019-03-21T18:15:17.053Z,35.47
2019-03-21T18:17:36.959Z,35.20
2019-03-21T18:19:56.728Z,30.27
2019-03-21T18:22:16.451Z,35.00
2019-03-21T18:24:53.060Z,31.43
2019-03-21T18:27:03.295Z,27.70
2019-03-21T18:29:23.221Z,28.33
2019-03-21T18:31:43.142Z,26.60
2019-03-21T18:34:03.420Z,27.70
2019-03-21T18:36:23.663Z,30.20
2019-03-21T18:38:43.555Z,24.07
2019-03-21T18:41:03.511Z,20.57
2019-03-21T18:43:23.595Z,19.57
2019-03-21T18:46:03.302Z,24.10
2019-03-21T18:48:23.481Z,21.83
2019-03-21T18:50:43.397Z,21.07
2019-03-21T18:53:03.434Z,24.70
2019-03-21T18:55:23.436Z,24.63
2019-03-21T18:57:43.411Z,23.60
2019-03-21T19:00:18.974Z,25.93
2019-03-21T19:02:39.179Z,29.60
2019-03-21T19:04:59.142Z,28.50
2019-03-21T19:07:18.941Z,31.13
2019-03-21T19:09:38.654Z,27.60
2019-03-21T19:11:58.355Z,26.70
2019-03-21T19:14:18.109Z,25.77
2019-03-21T19:16:37.965Z,28.80
2019-03-21T19:18:57.752Z,28.17
2019-03-21T19:21:17.649Z,31.27
2019-03-21T19:23:37.287Z,31.33
2019-03-21T19:25:57.107Z,26.63
2019-03-21T19:28:16.775Z,28.20
2019-03-21T19:30:36.669Z,36.60
2019-03-21T19:32:56.595Z,25.40
2019-03-21T19:35:16.655Z,39.03
2019-03-21T19:37:37.138Z,32.03
2019-03-21T19:39:57.088Z,30.80
2019-03-21T19:42:17.055Z,27.17
2019-03-21T19:44:36.806Z,24.07
2019-03-21T19:46:56.589Z,23.90
2019-03-21T19:49:16.367Z,17.40
2019-03-21T19:51:36.187Z,17.63
2019-03-21T19:53:56.386Z,16.83
2019-03-21T19:56:16.141Z,20.43
2019-03-21T19:58:35.824Z,22.70
2019-03-21T20:00:55.667Z,32.33
2019-03-21T20:03:15.399Z,61.07
2019-03-21T20:05:35.195Z,149.43
2019-03-21T20:07:55.108Z,186.90
2019-03-21T20:10:18.022Z,161.23
2019-03-21T20:12:37.798Z,112.93
2019-03-21T20:14:57.465Z,77.77
2019-03-21T20:17:17.239Z,82.47
2019-03-21T20:19:37.057Z,88.63
2019-03-21T20:21:56.811Z,69.10
2019-03-21T20:24:16.651Z,66.90
2019-03-21T20:26:36.330Z,66.67
2019-03-21T20:28:56.296Z,87.87
2019-03-21T20:31:16.381Z,103.93
2019-03-21T20:33:36.768Z,139.50
2019-03-21T20:35:56.726Z,144.63
2019-03-21T20:38:16.755Z,135.13
2019-03-21T20:40:39.064Z,79.80
2019-03-21T20:42:58.758Z,85.93
2019-03-21T20:45:19.391Z,54.23
2019-03-21T20:47:39.652Z,55.53
2019-03-21T20:49:59.475Z,52.60
2019-03-21T20:52:19.239Z,56.00
2019-03-21T20:54:38.994Z,65.03
2019-03-21T20:56:58.740Z,90.53
2019-03-21T20:59:20.580Z,73.17
2019-03-21T21:01:40.230Z,63.97
2019-03-21T21:03:59.958Z,54.27
2019-03-21T21:06:19.583Z,33.33
2019-03-21T21:08:39.243Z,20.40
2019-03-21T21:10:59.051Z,21.20
2019-03-21T21:13:18.837Z,17.03
2019-03-21T21:15:38.595Z,19.83
2019-03-21T21:17:58.339Z,18.00
2019-03-21T21:20:18.272Z,22.40
2019-03-21T21:22:38.130Z,28.27
2019-03-21T21:24:57.947Z,42.87
2019-03-21T21:27:17.714Z,23.87
2019-03-21T21:29:37.587Z,24.53
2019-03-21T21:31:57.568Z,33.60
2019-03-21T21:34:17.394Z,71.03
2019-03-21T21:36:37.318Z,52.47
2019-03-21T21:38:57.355Z,86.90
2019-03-21T21:41:17.218Z,83.83
2019-03-21T21:43:37.093Z,103.00
2019-03-21T21:45:56.935Z,91.07
2019-03-21T21:48:16.595Z,85.47
2019-03-21T21:50:36.304Z,57.60
2019-03-21T21:52:56.038Z,50.77
2019-03-21T21:55:15.776Z,52.03
2019-03-21T21:57:38.944Z,54.03
2019-03-21T21:59:58.809Z,49.30
2019-03-21T22:02:18.528Z,41.70
2019-03-21T22:04:38.403Z,72.00
2019-03-21T22:06:58.230Z,133.70
2019-03-21T22:09:18.055Z,147.53
2019-03-21T22:11:37.777Z,132.80
2019-03-21T22:13:57.528Z,117.67
2019-03-21T22:16:17.513Z,98.37
2019-03-21T22:18:37.228Z,84.80
2019-03-21T22:20:56.993Z,83.83
2019-03-21T22:23:16.781Z,60.70
2019-03-21T22:25:36.685Z,47.93
2019-03-21T22:27:56.570Z,63.23
2019-03-21T22:30:18.675Z,52.67
2019-03-21T22:32:38.603Z,44.97
2019-03-21T22:34:58.366Z,42.10
2019-03-21T22:37:18.325Z,46.50
2019-03-21T22:39:38.316Z,56.13
2019-03-21T22:41:58.286Z,70.07
2019-03-21T22:44:18.118Z,61.23
2019-03-21T22:46:37.914Z,79.00
2019-03-21T22:48:57.677Z,78.60
2019-03-21T22:51:17.380Z,66.00
2019-03-21T22:53:37.148Z,67.73
2019-03-21T22:55:56.851Z,46.93
2019-03-21T22:58:16.516Z,42.00
2019-03-21T23:00:43.907Z,41.87
2019-03-21T23:03:03.870Z,40.27
2019-03-21T23:05:23.719Z,45.47
2019-03-21T23:07:43.598Z,55.87
2019-03-21T23:10:09.876Z,62.03
2019-03-21T23:12:29.885Z,56.87
2019-03-21T23:14:49.681Z,51.47
2019-03-21T23:17:09.614Z,43.63
2019-03-21T23:19:29.483Z,28.20
2019-03-21T23:21:49.505Z,35.53
2019-03-21T23:24:09.484Z,19.77
2019-03-21T23:26:29.461Z,16.23
2019-03-21T23:28:49.166Z,15.63
2019-03-21T23:31:08.971Z,16.57
2019-03-21T23:33:28.688Z,23.10
2019-03-21T23:35:48.394Z,16.53
2019-03-21T23:38:08.104Z,19.17
2019-03-21T23:40:27.888Z,18.67
2019-03-21T23:42:47.766Z,19.57
2019-03-21T23:45:09.666Z,19.40
2019-03-21T23:47:29.584Z,21.57
2019-03-21T23:49:49.802Z,28.87
2019-03-21T23:52:09.556Z,25.53
2019-03-21T23:54:29.465Z,31.63
2019-03-21T23:56:49.202Z,26.83
2019-03-21T23:59:09.162Z,27.90
